Airfield :
LOGIN :

Register | Disclaimer

   EN    FR    IT 

 










Legend :    VFR   Marginal VFR   IFR   Intensive IFR   Very Intensive IFR
Visi :
Ceiling :
>= 8 km
>= 3000ft
5 to 8 km
1000 to 3000 ft
1500m to 5 km
500 to 1000 ft
800 to 1500m
200 to 500 ft
< 800m
< 200 ft
Symbols :   Thunderstorms  Fog  Heavy snow  Heavy precipitations  Wind > 20 kt
SIGMETs :     Misc.  Thunderstorms  Icing  Turbulence  Mountain Waves  Volcanic Ashes







- Airport Elevation : 1521 ft
- IATA code : NCY
- Download approach charts


LFLP - Annecy

CURRENT METAR :
  • 222000Z AUTO 07002KT CAVOK 16/10 Q1017

EXPIRED METARs :
  • 221930Z AUTO 24003KT CAVOK 20/06 Q1017
  • 221900Z AUTO 25007KT 230V290 CAVOK 21/06 Q1017 NOSIG
  • 221830Z AUTO 25004KT CAVOK 21/07 Q1016 NOSIG
  • 221800Z AUTO 27003KT CAVOK 23/08 Q1016 NOSIG
  • 221730Z AUTO 26005KT CAVOK 24/08 Q1016 NOSIG

TAF TAF LFLP
Valid from the 22 at 15:00 until the 23 at 15:00 UTC


221400Z 2215/2315 VRB03KT CAVOK
TEMPO 2314/2315 VRB10KT 4000 SHRA SCT030TCU BKN060
No reported NOTAMs for that airfield.



MET'MAP, your aeronautical weather chart ! - Copyright ORBIFLY December 2007 - Disclaimer

ORBIFLY MET'MAP TEAM :

Programming & Development : Alexandra Zaïnal
Concept & Development : Baudouin d'Aumeries
Co-Development & Prog : Marc-Olivier Méhu
Technical & hardware support : Manuel Goepfert

Contact : metmap@orbifly.com




SOURCES & CREDITS :

   NOAA